sensor_id;sensor_type;location;lat;lon;timestamp;P1;durP1;ratioP1;P2;durP2;ratioP2
12141;SDS011;6134;59.284;18.022;2024-02-26T00:00:09;13.88;;;8.35;;
12141;SDS011;6134;59.284;18.022;2024-02-26T00:02:38;15.13;;;7.88;;
12141;SDS011;6134;59.284;18.022;2024-02-26T00:05:08;18.63;;;9.38;;
12141;SDS011;6134;59.284;18.022;2024-02-26T00:07:36;17.35;;;8.43;;
12141;SDS011;6134;59.284;18.022;2024-02-26T00:10:07;12.35;;;7.65;;
12141;SDS011;6134;59.284;18.022;2024-02-26T00:12:36;12.95;;;8.30;;
12141;SDS011;6134;59.284;18.022;2024-02-26T00:15:06;12.90;;;8.00;;
12141;SDS011;6134;59.284;18.022;2024-02-26T00:17:35;15.07;;;8.65;;
12141;SDS011;6134;59.284;18.022;2024-02-26T00:20:05;14.18;;;8.45;;
12141;SDS011;6134;59.284;18.022;2024-02-26T00:22:35;12.18;;;8.07;;
12141;SDS011;6134;59.284;18.022;2024-02-26T00:25:05;12.70;;;7.95;;
12141;SDS011;6134;59.284;18.022;2024-02-26T00:27:35;14.40;;;8.65;;
12141;SDS011;6134;59.284;18.022;2024-02-26T00:30:06;12.82;;;7.80;;
12141;SDS011;6134;59.284;18.022;2024-02-26T00:32:35;12.73;;;8.15;;
12141;SDS011;6134;59.284;18.022;2024-02-26T00:35:04;12.57;;;8.23;;
12141;SDS011;6134;59.284;18.022;2024-02-26T00:37:33;13.77;;;8.20;;
12141;SDS011;6134;59.284;18.022;2024-02-26T00:40:02;12.70;;;8.35;;
12141;SDS011;6134;59.284;18.022;2024-02-26T00:42:32;12.88;;;8.07;;
12141;SDS011;6134;59.284;18.022;2024-02-26T00:45:03;10.65;;;7.82;;
12141;SDS011;6134;59.284;18.022;2024-02-26T00:47:33;12.35;;;8.32;;
12141;SDS011;6134;59.284;18.022;2024-02-26T00:50:02;13.40;;;8.63;;
12141;SDS011;6134;59.284;18.022;2024-02-26T00:52:31;14.35;;;9.13;;
12141;SDS011;6134;59.284;18.022;2024-02-26T00:54:59;12.85;;;8.15;;
12141;SDS011;6134;59.284;18.022;2024-02-26T00:57:29;12.93;;;7.53;;
12141;SDS011;6134;59.284;18.022;2024-02-26T00:59:57;11.50;;;7.80;;
12141;SDS011;6134;59.284;18.022;2024-02-26T01:02:29;9.85;;;7.40;;
12141;SDS011;6134;59.284;18.022;2024-02-26T01:04:57;13.18;;;7.70;;
12141;SDS011;6134;59.284;18.022;2024-02-26T01:07:26;10.70;;;7.20;;
12141;SDS011;6134;59.284;18.022;2024-02-26T01:09:55;11.02;;;7.00;;
12141;SDS011;6134;59.284;18.022;2024-02-26T01:12:24;11.65;;;7.43;;
12141;SDS011;6134;59.284;18.022;2024-02-26T01:14:53;11.00;;;6.70;;
12141;SDS011;6134;59.284;18.022;2024-02-26T01:17:22;9.45;;;6.97;;
12141;SDS011;6134;59.284;18.022;2024-02-26T01:19:52;11.77;;;7.05;;
12141;SDS011;6134;59.284;18.022;2024-02-26T01:22:21;12.95;;;7.65;;
12141;SDS011;6134;59.284;18.022;2024-02-26T01:24:50;11.27;;;7.03;;
12141;SDS011;6134;59.284;18.022;2024-02-26T01:27:18;12.98;;;7.95;;
12141;SDS011;6134;59.284;18.022;2024-02-26T01:29:47;12.20;;;7.50;;
12141;SDS011;6134;59.284;18.022;2024-02-26T01:32:16;10.45;;;7.03;;
12141;SDS011;6134;59.284;18.022;2024-02-26T01:34:46;13.35;;;8.25;;
12141;SDS011;6134;59.284;18.022;2024-02-26T01:37:16;12.55;;;7.88;;
12141;SDS011;6134;59.284;18.022;2024-02-26T01:39:45;8.63;;;6.30;;
12141;SDS011;6134;59.284;18.022;2024-02-26T01:42:15;8.27;;;6.20;;
12141;SDS011;6134;59.284;18.022;2024-02-26T01:44:44;8.55;;;6.07;;
12141;SDS011;6134;59.284;18.022;2024-02-26T01:47:14;9.10;;;6.55;;
12141;SDS011;6134;59.284;18.022;2024-02-26T01:49:42;10.43;;;6.45;;
12141;SDS011;6134;59.284;18.022;2024-02-26T01:52:11;9.98;;;6.22;;
12141;SDS011;6134;59.284;18.022;2024-02-26T01:54:42;8.23;;;6.03;;
12141;SDS011;6134;59.284;18.022;2024-02-26T01:57:11;7.28;;;5.82;;
12141;SDS011;6134;59.284;18.022;2024-02-26T01:59:40;9.23;;;6.03;;
12141;SDS011;6134;59.284;18.022;2024-02-26T02:02:10;8.85;;;6.10;;
12141;SDS011;6134;59.284;18.022;2024-02-26T02:04:40;8.70;;;5.80;;
12141;SDS011;6134;59.284;18.022;2024-02-26T02:07:08;7.93;;;5.85;;
12141;SDS011;6134;59.284;18.022;2024-02-26T02:09:37;7.85;;;5.35;;
12141;SDS011;6134;59.284;18.022;2024-02-26T02:12:07;7.70;;;5.47;;
12141;SDS011;6134;59.284;18.022;2024-02-26T02:14:36;8.30;;;5.70;;
12141;SDS011;6134;59.284;18.022;2024-02-26T02:17:05;8.30;;;5.95;;
12141;SDS011;6134;59.284;18.022;2024-02-26T02:19:34;7.40;;;5.40;;
12141;SDS011;6134;59.284;18.022;2024-02-26T02:22:04;7.65;;;5.75;;
12141;SDS011;6134;59.284;18.022;2024-02-26T02:24:33;6.22;;;5.25;;
12141;SDS011;6134;59.284;18.022;2024-02-26T02:27:02;6.90;;;5.10;;
12141;SDS011;6134;59.284;18.022;2024-02-26T02:29:31;7.57;;;5.38;;
12141;SDS011;6134;59.284;18.022;2024-02-26T02:32:00;8.20;;;5.70;;
12141;SDS011;6134;59.284;18.022;2024-02-26T02:34:30;7.25;;;5.78;;
12141;SDS011;6134;59.284;18.022;2024-02-26T02:37:00;6.43;;;5.35;;
12141;SDS011;6134;59.284;18.022;2024-02-26T02:39:30;8.38;;;5.95;;
12141;SDS011;6134;59.284;18.022;2024-02-26T02:41:59;7.35;;;5.65;;
12141;SDS011;6134;59.284;18.022;2024-02-26T02:44:28;7.00;;;5.57;;
12141;SDS011;6134;59.284;18.022;2024-02-26T02:46:57;8.48;;;5.55;;
12141;SDS011;6134;59.284;18.022;2024-02-26T02:49:26;8.82;;;5.72;;
12141;SDS011;6134;59.284;18.022;2024-02-26T02:51:55;7.60;;;5.78;;
12141;SDS011;6134;59.284;18.022;2024-02-26T02:54:24;6.68;;;5.97;;
12141;SDS011;6134;59.284;18.022;2024-02-26T02:56:54;7.60;;;5.78;;
12141;SDS011;6134;59.284;18.022;2024-02-26T02:59:23;7.50;;;5.50;;
12141;SDS011;6134;59.284;18.022;2024-02-26T03:01:52;7.30;;;6.15;;
12141;SDS011;6134;59.284;18.022;2024-02-26T03:04:20;8.77;;;5.90;;
12141;SDS011;6134;59.284;18.022;2024-02-26T03:06:49;8.27;;;6.88;;
12141;SDS011;6134;59.284;18.022;2024-02-26T03:09:18;8.90;;;6.53;;
12141;SDS011;6134;59.284;18.022;2024-02-26T03:11:47;7.20;;;6.15;;
12141;SDS011;6134;59.284;18.022;2024-02-26T03:14:17;7.60;;;6.38;;
12141;SDS011;6134;59.284;18.022;2024-02-26T03:16:46;11.70;;;6.85;;
12141;SDS011;6134;59.284;18.022;2024-02-26T03:19:14;9.13;;;6.57;;
12141;SDS011;6134;59.284;18.022;2024-02-26T03:21:44;9.23;;;6.55;;
12141;SDS011;6134;59.284;18.022;2024-02-26T03:24:13;7.32;;;6.38;;
12141;SDS011;6134;59.284;18.022;2024-02-26T03:26:42;8.32;;;6.07;;
12141;SDS011;6134;59.284;18.022;2024-02-26T03:29:10;7.80;;;6.78;;
12141;SDS011;6134;59.284;18.022;2024-02-26T03:31:41;10.55;;;6.63;;
12141;SDS011;6134;59.284;18.022;2024-02-26T03:34:09;8.07;;;6.28;;
12141;SDS011;6134;59.284;18.022;2024-02-26T03:36:39;8.02;;;6.47;;
12141;SDS011;6134;59.284;18.022;2024-02-26T03:39:08;8.57;;;6.43;;
12141;SDS011;6134;59.284;18.022;2024-02-26T03:41:37;8.07;;;6.60;;
12141;SDS011;6134;59.284;18.022;2024-02-26T03:44:06;8.95;;;6.97;;
12141;SDS011;6134;59.284;18.022;2024-02-26T03:46:35;9.25;;;7.70;;
12141;SDS011;6134;59.284;18.022;2024-02-26T03:49:05;8.50;;;7.05;;
12141;SDS011;6134;59.284;18.022;2024-02-26T03:51:35;9.55;;;7.32;;
12141;SDS011;6134;59.284;18.022;2024-02-26T03:54:04;8.93;;;7.35;;
12141;SDS011;6134;59.284;18.022;2024-02-26T03:56:32;8.45;;;6.60;;
12141;SDS011;6134;59.284;18.022;2024-02-26T03:59:01;7.90;;;6.60;;
12141;SDS011;6134;59.284;18.022;2024-02-26T04:01:30;10.13;;;8.05;;
12141;SDS011;6134;59.284;18.022;2024-02-26T04:03:59;9.20;;;7.22;;
12141;SDS011;6134;59.284;18.022;2024-02-26T04:06:29;9.07;;;7.10;;
12141;SDS011;6134;59.284;18.022;2024-02-26T04:08:58;7.60;;;6.80;;
12141;SDS011;6134;59.284;18.022;2024-02-26T04:11:30;10.82;;;7.38;;
12141;SDS011;6134;59.284;18.022;2024-02-26T04:13:59;9.57;;;7.00;;
12141;SDS011;6134;59.284;18.022;2024-02-26T04:16:29;9.02;;;7.68;;
12141;SDS011;6134;59.284;18.022;2024-02-26T04:18:58;9.95;;;7.70;;
12141;SDS011;6134;59.284;18.022;2024-02-26T04:21:27;9.60;;;7.80;;
12141;SDS011;6134;59.284;18.022;2024-02-26T04:23:57;9.30;;;7.05;;
12141;SDS011;6134;59.284;18.022;2024-02-26T04:26:28;8.40;;;7.40;;
12141;SDS011;6134;59.284;18.022;2024-02-26T04:28:58;8.88;;;7.55;;
12141;SDS011;6134;59.284;18.022;2024-02-26T04:31:26;8.85;;;7.63;;
12141;SDS011;6134;59.284;18.022;2024-02-26T04:33:55;8.95;;;7.93;;
12141;SDS011;6134;59.284;18.022;2024-02-26T04:36:24;9.82;;;7.30;;
12141;SDS011;6134;59.284;18.022;2024-02-26T04:38:53;9.93;;;8.13;;
12141;SDS011;6134;59.284;18.022;2024-02-26T04:41:24;12.43;;;8.45;;
12141;SDS011;6134;59.284;18.022;2024-02-26T04:43:53;9.57;;;7.63;;
12141;SDS011;6134;59.284;18.022;2024-02-26T04:46:22;10.30;;;7.57;;
12141;SDS011;6134;59.284;18.022;2024-02-26T04:48:51;10.52;;;7.90;;
12141;SDS011;6134;59.284;18.022;2024-02-26T04:51:24;10.60;;;8.25;;
12141;SDS011;6134;59.284;18.022;2024-02-26T04:53:53;11.30;;;8.32;;
12141;SDS011;6134;59.284;18.022;2024-02-26T04:56:21;11.07;;;8.35;;
12141;SDS011;6134;59.284;18.022;2024-02-26T04:58:52;8.90;;;7.35;;
12141;SDS011;6134;59.284;18.022;2024-02-26T05:01:20;9.93;;;7.65;;
12141;SDS011;6134;59.284;18.022;2024-02-26T05:03:50;10.30;;;7.63;;
12141;SDS011;6134;59.284;18.022;2024-02-26T05:06:18;10.95;;;8.75;;
12141;SDS011;6134;59.284;18.022;2024-02-26T05:08:48;12.43;;;8.73;;
12141;SDS011;6134;59.284;18.022;2024-02-26T05:11:17;11.38;;;8.23;;
12141;SDS011;6134;59.284;18.022;2024-02-26T05:13:47;8.50;;;7.32;;
12141;SDS011;6134;59.284;18.022;2024-02-26T05:16:17;10.60;;;8.07;;
12141;SDS011;6134;59.284;18.022;2024-02-26T05:18:47;9.55;;;8.18;;
12141;SDS011;6134;59.284;18.022;2024-02-26T05:21:16;10.35;;;8.80;;
12141;SDS011;6134;59.284;18.022;2024-02-26T05:23:45;12.13;;;8.82;;
12141;SDS011;6134;59.284;18.022;2024-02-26T05:29:08;12.07;;;9.18;;
12141;SDS011;6134;59.284;18.022;2024-02-26T05:31:39;12.38;;;9.20;;
12141;SDS011;6134;59.284;18.022;2024-02-26T05:34:10;12.73;;;8.95;;
12141;SDS011;6134;59.284;18.022;2024-02-26T05:36:39;10.93;;;9.30;;
12141;SDS011;6134;59.284;18.022;2024-02-26T05:39:08;11.13;;;9.43;;
12141;SDS011;6134;59.284;18.022;2024-02-26T05:41:44;14.02;;;9.57;;
12141;SDS011;6134;59.284;18.022;2024-02-26T05:44:13;14.00;;;9.63;;
12141;SDS011;6134;59.284;18.022;2024-02-26T05:46:44;13.48;;;9.70;;
12141;SDS011;6134;59.284;18.022;2024-02-26T05:49:13;14.95;;;9.25;;
12141;SDS011;6134;59.284;18.022;2024-02-26T05:51:42;13.15;;;9.77;;
12141;SDS011;6134;59.284;18.022;2024-02-26T05:54:12;12.75;;;10.35;;
12141;SDS011;6134;59.284;18.022;2024-02-26T05:56:40;13.60;;;9.65;;
12141;SDS011;6134;59.284;18.022;2024-02-26T05:59:10;13.13;;;10.20;;
12141;SDS011;6134;59.284;18.022;2024-02-26T06:01:39;13.13;;;10.02;;
12141;SDS011;6134;59.284;18.022;2024-02-26T06:04:09;13.77;;;10.15;;
12141;SDS011;6134;59.284;18.022;2024-02-26T06:06:39;12.70;;;10.13;;
12141;SDS011;6134;59.284;18.022;2024-02-26T06:09:09;14.00;;;10.10;;
12141;SDS011;6134;59.284;18.022;2024-02-26T06:11:38;14.88;;;9.68;;
12141;SDS011;6134;59.284;18.022;2024-02-26T06:14:07;13.50;;;9.60;;
12141;SDS011;6134;59.284;18.022;2024-02-26T06:16:36;13.90;;;9.90;;
12141;SDS011;6134;59.284;18.022;2024-02-26T06:19:05;15.02;;;10.07;;
12141;SDS011;6134;59.284;18.022;2024-02-26T06:21:38;12.35;;;9.52;;
12141;SDS011;6134;59.284;18.022;2024-02-26T06:24:07;13.00;;;9.68;;
12141;SDS011;6134;59.284;18.022;2024-02-26T06:26:36;11.50;;;9.68;;
12141;SDS011;6134;59.284;18.022;2024-02-26T06:29:05;13.98;;;10.13;;
12141;SDS011;6134;59.284;18.022;2024-02-26T06:31:34;12.70;;;9.23;;
12141;SDS011;6134;59.284;18.022;2024-02-26T06:34:02;13.63;;;9.95;;
12141;SDS011;6134;59.284;18.022;2024-02-26T06:36:31;12.55;;;9.20;;
12141;SDS011;6134;59.284;18.022;2024-02-26T06:39:02;14.07;;;9.68;;
12141;SDS011;6134;59.284;18.022;2024-02-26T06:41:32;12.73;;;9.45;;
12141;SDS011;6134;59.284;18.022;2024-02-26T06:44:01;13.70;;;9.00;;
12141;SDS011;6134;59.284;18.022;2024-02-26T06:46:30;14.68;;;9.15;;
12141;SDS011;6134;59.284;18.022;2024-02-26T06:48:58;13.02;;;9.75;;
12141;SDS011;6134;59.284;18.022;2024-02-26T06:51:27;12.65;;;9.57;;
12141;SDS011;6134;59.284;18.022;2024-02-26T06:53:57;12.13;;;9.50;;
12141;SDS011;6134;59.284;18.022;2024-02-26T06:56:29;16.83;;;10.43;;
12141;SDS011;6134;59.284;18.022;2024-02-26T06:58:58;13.65;;;10.00;;
12141;SDS011;6134;59.284;18.022;2024-02-26T07:01:26;12.18;;;9.73;;
12141;SDS011;6134;59.284;18.022;2024-02-26T07:03:57;12.18;;;9.55;;
12141;SDS011;6134;59.284;18.022;2024-02-26T07:06:27;13.55;;;9.80;;
12141;SDS011;6134;59.284;18.022;2024-02-26T07:08:56;12.18;;;9.70;;
12141;SDS011;6134;59.284;18.022;2024-02-26T07:11:24;13.70;;;10.07;;
12141;SDS011;6134;59.284;18.022;2024-02-26T07:13:54;13.07;;;9.50;;
12141;SDS011;6134;59.284;18.022;2024-02-26T07:16:23;14.35;;;9.70;;
12141;SDS011;6134;59.284;18.022;2024-02-26T07:18:53;12.63;;;9.82;;
12141;SDS011;6134;59.284;18.022;2024-02-26T07:21:22;11.35;;;9.18;;
12141;SDS011;6134;59.284;18.022;2024-02-26T07:23:50;11.95;;;9.55;;
12141;SDS011;6134;59.284;18.022;2024-02-26T07:26:19;13.88;;;10.27;;
12141;SDS011;6134;59.284;18.022;2024-02-26T07:28:48;11.85;;;9.23;;
12141;SDS011;6134;59.284;18.022;2024-02-26T07:31:18;13.43;;;10.15;;
12141;SDS011;6134;59.284;18.022;2024-02-26T07:33:47;13.05;;;9.82;;
12141;SDS011;6134;59.284;18.022;2024-02-26T07:36:16;12.63;;;9.35;;
12141;SDS011;6134;59.284;18.022;2024-02-26T07:38:45;12.57;;;9.50;;
12141;SDS011;6134;59.284;18.022;2024-02-26T07:41:15;14.00;;;9.63;;
12141;SDS011;6134;59.284;18.022;2024-02-26T07:43:44;12.48;;;9.60;;
12141;SDS011;6134;59.284;18.022;2024-02-26T07:46:13;13.68;;;10.05;;
12141;SDS011;6134;59.284;18.022;2024-02-26T07:48:44;12.52;;;9.48;;
12141;SDS011;6134;59.284;18.022;2024-02-26T07:51:13;14.10;;;10.07;;
12141;SDS011;6134;59.284;18.022;2024-02-26T07:53:42;16.63;;;10.50;;
12141;SDS011;6134;59.284;18.022;2024-02-26T07:56:10;12.07;;;10.43;;
12141;SDS011;6134;59.284;18.022;2024-02-26T07:58:40;14.68;;;10.82;;
12141;SDS011;6134;59.284;18.022;2024-02-26T08:01:09;17.92;;;12.07;;
12141;SDS011;6134;59.284;18.022;2024-02-26T08:03:37;16.98;;;11.93;;
12141;SDS011;6134;59.284;18.022;2024-02-26T08:06:09;16.27;;;11.10;;
12141;SDS011;6134;59.284;18.022;2024-02-26T08:08:38;17.52;;;11.15;;
12141;SDS011;6134;59.284;18.022;2024-02-26T08:11:06;14.85;;;9.77;;
12141;SDS011;6134;59.284;18.022;2024-02-26T08:13:35;12.82;;;9.27;;
12141;SDS011;6134;59.284;18.022;2024-02-26T08:16:05;11.70;;;9.40;;
12141;SDS011;6134;59.284;18.022;2024-02-26T08:18:33;15.65;;;10.70;;
12141;SDS011;6134;59.284;18.022;2024-02-26T08:21:03;13.77;;;10.63;;
12141;SDS011;6134;59.284;18.022;2024-02-26T08:23:33;14.77;;;10.68;;
12141;SDS011;6134;59.284;18.022;2024-02-26T08:26:02;15.30;;;10.63;;
12141;SDS011;6134;59.284;18.022;2024-02-26T08:28:33;13.85;;;10.32;;
12141;SDS011;6134;59.284;18.022;2024-02-26T08:31:02;14.55;;;10.07;;
12141;SDS011;6134;59.284;18.022;2024-02-26T08:33:31;13.32;;;10.77;;
12141;SDS011;6134;59.284;18.022;2024-02-26T08:36:03;16.63;;;11.25;;
12141;SDS011;6134;59.284;18.022;2024-02-26T08:38:34;13.38;;;10.35;;
12141;SDS011;6134;59.284;18.022;2024-02-26T08:41:03;14.65;;;10.95;;
12141;SDS011;6134;59.284;18.022;2024-02-26T08:43:33;15.73;;;11.13;;
12141;SDS011;6134;59.284;18.022;2024-02-26T08:46:01;14.85;;;10.35;;
12141;SDS011;6134;59.284;18.022;2024-02-26T08:48:30;13.20;;;10.07;;
12141;SDS011;6134;59.284;18.022;2024-02-26T08:50:59;11.48;;;9.38;;
12141;SDS011;6134;59.284;18.022;2024-02-26T08:53:28;11.73;;;9.18;;
12141;SDS011;6134;59.284;18.022;2024-02-26T08:56:09;12.45;;;9.02;;
12141;SDS011;6134;59.284;18.022;2024-02-26T08:58:45;14.30;;;9.50;;
12141;SDS011;6134;59.284;18.022;2024-02-26T09:01:15;12.15;;;9.27;;
12141;SDS011;6134;59.284;18.022;2024-02-26T09:03:44;11.82;;;8.98;;
12141;SDS011;6134;59.284;18.022;2024-02-26T09:06:14;11.10;;;8.73;;
12141;SDS011;6134;59.284;18.022;2024-02-26T09:08:43;10.27;;;9.18;;
12141;SDS011;6134;59.284;18.022;2024-02-26T09:11:13;16.23;;;10.80;;
12141;SDS011;6134;59.284;18.022;2024-02-26T09:13:42;15.90;;;11.25;;
12141;SDS011;6134;59.284;18.022;2024-02-26T09:16:11;18.15;;;11.18;;
12141;SDS011;6134;59.284;18.022;2024-02-26T09:18:40;16.60;;;11.38;;
12141;SDS011;6134;59.284;18.022;2024-02-26T09:21:09;16.98;;;11.30;;
12141;SDS011;6134;59.284;18.022;2024-02-26T09:23:38;16.20;;;10.80;;
12141;SDS011;6134;59.284;18.022;2024-02-26T09:26:07;16.00;;;11.35;;
12141;SDS011;6134;59.284;18.022;2024-02-26T09:28:37;13.20;;;9.32;;
12141;SDS011;6134;59.284;18.022;2024-02-26T09:31:06;12.27;;;9.63;;
12141;SDS011;6134;59.284;18.022;2024-02-26T09:33:34;14.10;;;9.48;;
12141;SDS011;6134;59.284;18.022;2024-02-26T09:36:04;15.10;;;10.93;;
12141;SDS011;6134;59.284;18.022;2024-02-26T09:38:33;14.48;;;10.35;;
12141;SDS011;6134;59.284;18.022;2024-02-26T09:41:21;14.35;;;10.90;;
12141;SDS011;6134;59.284;18.022;2024-02-26T09:43:53;14.55;;;10.70;;
12141;SDS011;6134;59.284;18.022;2024-02-26T09:46:24;17.42;;;11.35;;
12141;SDS011;6134;59.284;18.022;2024-02-26T09:48:53;16.10;;;11.13;;
12141;SDS011;6134;59.284;18.022;2024-02-26T09:51:23;18.42;;;11.73;;
12141;SDS011;6134;59.284;18.022;2024-02-26T09:53:53;17.67;;;12.27;;
12141;SDS011;6134;59.284;18.022;2024-02-26T09:56:21;18.05;;;11.60;;
12141;SDS011;6134;59.284;18.022;2024-02-26T09:58:51;16.25;;;11.32;;
12141;SDS011;6134;59.284;18.022;2024-02-26T10:01:23;15.23;;;11.32;;
12141;SDS011;6134;59.284;18.022;2024-02-26T10:03:54;15.93;;;11.40;;
12141;SDS011;6134;59.284;18.022;2024-02-26T10:06:24;14.98;;;9.88;;
12141;SDS011;6134;59.284;18.022;2024-02-26T10:08:53;17.13;;;11.30;;
12141;SDS011;6134;59.284;18.022;2024-02-26T10:11:22;16.52;;;11.07;;
12141;SDS011;6134;59.284;18.022;2024-02-26T10:13:52;15.25;;;11.18;;
12141;SDS011;6134;59.284;18.022;2024-02-26T10:16:21;19.17;;;13.00;;
12141;SDS011;6134;59.284;18.022;2024-02-26T10:18:51;17.67;;;11.93;;
12141;SDS011;6134;59.284;18.022;2024-02-26T10:21:26;14.57;;;10.55;;
12141;SDS011;6134;59.284;18.022;2024-02-26T10:23:55;16.70;;;10.75;;
12141;SDS011;6134;59.284;18.022;2024-02-26T10:26:23;16.52;;;11.07;;
12141;SDS011;6134;59.284;18.022;2024-02-26T10:28:52;15.35;;;10.45;;
12141;SDS011;6134;59.284;18.022;2024-02-26T10:31:21;17.10;;;10.98;;
12141;SDS011;6134;59.284;18.022;2024-02-26T10:33:51;14.52;;;10.30;;
12141;SDS011;6134;59.284;18.022;2024-02-26T10:36:29;14.98;;;10.27;;
12141;SDS011;6134;59.284;18.022;2024-02-26T10:39:13;15.50;;;10.57;;
12141;SDS011;6134;59.284;18.022;2024-02-26T10:41:43;16.10;;;10.20;;
12141;SDS011;6134;59.284;18.022;2024-02-26T10:44:12;14.63;;;10.15;;
12141;SDS011;6134;59.284;18.022;2024-02-26T10:46:46;15.68;;;9.90;;
12141;SDS011;6134;59.284;18.022;2024-02-26T10:49:17;13.23;;;9.13;;
12141;SDS011;6134;59.284;18.022;2024-02-26T10:51:55;13.88;;;9.75;;
12141;SDS011;6134;59.284;18.022;2024-02-26T10:54:25;15.27;;;10.57;;
12141;SDS011;6134;59.284;18.022;2024-02-26T10:56:56;14.20;;;9.65;;
12141;SDS011;6134;59.284;18.022;2024-02-26T10:59:26;14.48;;;10.23;;
12141;SDS011;6134;59.284;18.022;2024-02-26T11:01:55;12.80;;;9.38;;
12141;SDS011;6134;59.284;18.022;2024-02-26T11:04:26;11.82;;;9.38;;
12141;SDS011;6134;59.284;18.022;2024-02-26T11:06:57;12.02;;;9.48;;
12141;SDS011;6134;59.284;18.022;2024-02-26T11:09:28;12.55;;;9.52;;
12141;SDS011;6134;59.284;18.022;2024-02-26T11:11:57;10.23;;;8.50;;
12141;SDS011;6134;59.284;18.022;2024-02-26T11:14:26;11.32;;;8.35;;
12141;SDS011;6134;59.284;18.022;2024-02-26T11:16:56;11.68;;;8.63;;
12141;SDS011;6134;59.284;18.022;2024-02-26T11:19:27;9.68;;;7.38;;
12141;SDS011;6134;59.284;18.022;2024-02-26T11:21:57;11.73;;;8.25;;
12141;SDS011;6134;59.284;18.022;2024-02-26T11:24:41;11.00;;;8.15;;
12141;SDS011;6134;59.284;18.022;2024-02-26T11:27:10;9.88;;;8.25;;
12141;SDS011;6134;59.284;18.022;2024-02-26T11:29:41;11.65;;;9.02;;
12141;SDS011;6134;59.284;18.022;2024-02-26T11:32:12;12.65;;;8.15;;
12141;SDS011;6134;59.284;18.022;2024-02-26T11:34:42;13.65;;;9.30;;
12141;SDS011;6134;59.284;18.022;2024-02-26T11:37:11;11.00;;;8.63;;
12141;SDS011;6134;59.284;18.022;2024-02-26T11:39:40;13.98;;;9.73;;
12141;SDS011;6134;59.284;18.022;2024-02-26T11:42:13;11.63;;;8.65;;
12141;SDS011;6134;59.284;18.022;2024-02-26T11:44:43;14.23;;;8.85;;
12141;SDS011;6134;59.284;18.022;2024-02-26T11:47:12;12.30;;;8.77;;
12141;SDS011;6134;59.284;18.022;2024-02-26T11:49:42;10.32;;;8.55;;
12141;SDS011;6134;59.284;18.022;2024-02-26T11:52:10;14.63;;;8.73;;
12141;SDS011;6134;59.284;18.022;2024-02-26T11:54:40;11.18;;;8.60;;
12141;SDS011;6134;59.284;18.022;2024-02-26T11:57:24;10.07;;;7.97;;
12141;SDS011;6134;59.284;18.022;2024-02-26T11:59:54;11.55;;;8.73;;
12141;SDS011;6134;59.284;18.022;2024-02-26T12:05:17;9.82;;;8.15;;
12141;SDS011;6134;59.284;18.022;2024-02-26T12:07:48;10.77;;;8.15;;
12141;SDS011;6134;59.284;18.022;2024-02-26T12:10:26;9.25;;;7.78;;
12141;SDS011;6134;59.284;18.022;2024-02-26T12:12:59;9.68;;;7.85;;
12141;SDS011;6134;59.284;18.022;2024-02-26T12:15:30;11.07;;;8.80;;
12141;SDS011;6134;59.284;18.022;2024-02-26T12:18:01;10.65;;;8.60;;
12141;SDS011;6134;59.284;18.022;2024-02-26T12:20:33;12.10;;;8.80;;
12141;SDS011;6134;59.284;18.022;2024-02-26T12:23:02;9.93;;;8.75;;
12141;SDS011;6134;59.284;18.022;2024-02-26T12:25:31;12.10;;;8.93;;
12141;SDS011;6134;59.284;18.022;2024-02-26T12:28:00;10.48;;;9.05;;
12141;SDS011;6134;59.284;18.022;2024-02-26T12:30:29;10.82;;;9.10;;
12141;SDS011;6134;59.284;18.022;2024-02-26T12:33:00;10.48;;;8.60;;
12141;SDS011;6134;59.284;18.022;2024-02-26T12:35:29;12.05;;;8.75;;
12141;SDS011;6134;59.284;18.022;2024-02-26T12:38:00;10.20;;;7.65;;
12141;SDS011;6134;59.284;18.022;2024-02-26T12:40:30;11.70;;;8.93;;
12141;SDS011;6134;59.284;18.022;2024-02-26T12:43:00;8.32;;;7.43;;
12141;SDS011;6134;59.284;18.022;2024-02-26T12:45:29;8.80;;;7.53;;
12141;SDS011;6134;59.284;18.022;2024-02-26T12:47:58;10.60;;;7.95;;
12141;SDS011;6134;59.284;18.022;2024-02-26T12:50:28;8.95;;;7.93;;
12141;SDS011;6134;59.284;18.022;2024-02-26T12:53:00;8.25;;;6.90;;
12141;SDS011;6134;59.284;18.022;2024-02-26T12:55:29;7.90;;;6.90;;
12141;SDS011;6134;59.284;18.022;2024-02-26T12:58:00;8.52;;;7.63;;
12141;SDS011;6134;59.284;18.022;2024-02-26T13:00:29;8.00;;;7.15;;
12141;SDS011;6134;59.284;18.022;2024-02-26T13:02:59;9.50;;;7.18;;
12141;SDS011;6134;59.284;18.022;2024-02-26T13:05:28;9.38;;;7.03;;
12141;SDS011;6134;59.284;18.022;2024-02-26T13:07:57;7.63;;;6.53;;
12141;SDS011;6134;59.284;18.022;2024-02-26T13:10:27;7.60;;;6.32;;
12141;SDS011;6134;59.284;18.022;2024-02-26T13:12:56;8.60;;;7.00;;
12141;SDS011;6134;59.284;18.022;2024-02-26T13:15:25;7.95;;;6.50;;
12141;SDS011;6134;59.284;18.022;2024-02-26T13:17:55;7.18;;;6.47;;
12141;SDS011;6134;59.284;18.022;2024-02-26T13:20:25;7.25;;;6.20;;
12141;SDS011;6134;59.284;18.022;2024-02-26T13:23:01;7.32;;;6.53;;
12141;SDS011;6134;59.284;18.022;2024-02-26T13:25:31;7.68;;;6.78;;
12141;SDS011;6134;59.284;18.022;2024-02-26T13:28:06;7.72;;;6.82;;
12141;SDS011;6134;59.284;18.022;2024-02-26T13:30:36;9.05;;;7.47;;
12141;SDS011;6134;59.284;18.022;2024-02-26T13:33:07;9.30;;;6.72;;
12141;SDS011;6134;59.284;18.022;2024-02-26T13:35:37;8.77;;;6.85;;
12141;SDS011;6134;59.284;18.022;2024-02-26T13:38:06;7.80;;;6.88;;
12141;SDS011;6134;59.284;18.022;2024-02-26T13:40:37;8.45;;;6.68;;
12141;SDS011;6134;59.284;18.022;2024-02-26T13:43:07;7.97;;;6.07;;
12141;SDS011;6134;59.284;18.022;2024-02-26T13:45:36;7.65;;;6.43;;
12141;SDS011;6134;59.284;18.022;2024-02-26T13:48:05;8.85;;;6.57;;
12141;SDS011;6134;59.284;18.022;2024-02-26T13:50:37;6.97;;;6.28;;
12141;SDS011;6134;59.284;18.022;2024-02-26T13:53:06;8.02;;;7.13;;
12141;SDS011;6134;59.284;18.022;2024-02-26T13:55:35;8.52;;;6.80;;
12141;SDS011;6134;59.284;18.022;2024-02-26T13:58:05;9.32;;;7.55;;
12141;SDS011;6134;59.284;18.022;2024-02-26T14:00:34;8.45;;;6.95;;
12141;SDS011;6134;59.284;18.022;2024-02-26T14:03:03;9.05;;;7.63;;
12141;SDS011;6134;59.284;18.022;2024-02-26T14:05:32;10.20;;;8.07;;
12141;SDS011;6134;59.284;18.022;2024-02-26T14:08:03;9.25;;;7.88;;
12141;SDS011;6134;59.284;18.022;2024-02-26T14:10:32;9.95;;;7.65;;
12141;SDS011;6134;59.284;18.022;2024-02-26T14:13:02;11.65;;;7.95;;
12141;SDS011;6134;59.284;18.022;2024-02-26T14:15:32;9.23;;;8.15;;
12141;SDS011;6134;59.284;18.022;2024-02-26T14:18:02;9.57;;;8.57;;
12141;SDS011;6134;59.284;18.022;2024-02-26T14:20:31;10.38;;;8.55;;
12141;SDS011;6134;59.284;18.022;2024-02-26T14:23:00;9.48;;;7.70;;
12141;SDS011;6134;59.284;18.022;2024-02-26T14:25:27;12.55;;;8.43;;
12141;SDS011;6134;59.284;18.022;2024-02-26T14:27:57;9.43;;;8.43;;
12141;SDS011;6134;59.284;18.022;2024-02-26T14:30:26;8.93;;;7.97;;
12141;SDS011;6134;59.284;18.022;2024-02-26T14:32:56;9.50;;;7.97;;
12141;SDS011;6134;59.284;18.022;2024-02-26T14:35:25;8.68;;;7.78;;
12141;SDS011;6134;59.284;18.022;2024-02-26T14:37:54;10.30;;;8.07;;
12141;SDS011;6134;59.284;18.022;2024-02-26T14:40:27;10.18;;;8.50;;
12141;SDS011;6134;59.284;18.022;2024-02-26T14:42:57;10.43;;;8.07;;
12141;SDS011;6134;59.284;18.022;2024-02-26T14:45:26;9.65;;;8.65;;
12141;SDS011;6134;59.284;18.022;2024-02-26T14:47:56;12.95;;;9.32;;
12141;SDS011;6134;59.284;18.022;2024-02-26T14:50:25;10.68;;;8.43;;
12141;SDS011;6134;59.284;18.022;2024-02-26T14:52:54;10.55;;;8.98;;
12141;SDS011;6134;59.284;18.022;2024-02-26T14:55:24;9.70;;;8.63;;